Time;durP1;ratioP1;P1;durP2;ratioP2;P2;SDS_P1;SDS_P2;PMS_P1;PMS_P2;Temp;Humidity;BMP_temperature;BMP_pressure;BME280_temperature;BME280_humidity;BME280_pressure;Samples;Min_cycle;Max_cycle;Signal;HPM_P1;HPM_P2
2022/04/27 00:00:13;;;;;;;12.27;8.15;;;;;;;5.75;77.47;102301.66;4971766;28;20034;-79
2022/04/27 00:02:38;;;;;;;13.48;8.02;;;;;;;5.69;77.22;102297.47;4970170;28;20030;-82
2022/04/27 00:05:04;;;;;;;11.98;8.25;;;;;;;5.65;77.42;102299.31;4970975;28;20449;-78
2022/04/27 00:07:30;;;;;;;10.55;8.00;;;;;;;5.60;77.98;102290.78;4970522;28;20027;-78
2022/04/27 00:09:55;;;;;;;13.07;8.73;;;;;;;5.59;77.57;102294.25;4970057;28;20031;-80
2022/04/27 00:12:21;;;;;;;10.60;8.50;;;;;;;5.57;78.18;102298.66;4969976;28;20042;-80
2022/04/27 00:14:47;;;;;;;13.57;8.63;;;;;;;5.51;78.13;102293.63;4969514;28;20081;-79
2022/04/27 00:17:12;;;;;;;12.07;8.23;;;;;;;5.48;77.94;102295.47;4971243;28;20035;-80
2022/04/27 00:19:38;;;;;;;11.95;8.52;;;;;;;5.45;78.60;102290.34;4970653;28;20071;-79
2022/04/27 00:22:03;;;;;;;14.82;8.73;;;;;;;5.40;78.29;102285.28;4986040;28;20030;-78
2022/04/27 00:24:29;;;;;;;12.75;9.18;;;;;;;5.34;78.68;102288.06;4969878;28;20037;-79
2022/04/27 00:26:54;;;;;;;12.25;8.85;;;;;;;5.34;79.10;102290.69;4970672;28;20106;-78
2022/04/27 00:29:19;;;;;;;12.25;8.80;;;;;;;5.27;78.52;102287.41;4971600;28;20030;-80
2022/04/27 00:31:45;;;;;;;13.30;9.75;;;;;;;5.26;78.55;102295.28;4971056;28;20616;-78
2022/04/27 00:34:10;;;;;;;14.60;9.07;;;;;;;5.24;79.56;102291.84;4970467;28;20018;-78
2022/04/27 00:36:35;;;;;;;11.65;9.38;;;;;;;5.15;79.24;102292.94;4970806;28;20031;-79
2022/04/27 00:39:01;;;;;;;12.93;9.90;;;;;;;5.15;79.44;102297.31;4985432;28;20035;-79
2022/04/27 00:41:27;;;;;;;11.60;9.45;;;;;;;5.09;79.13;102295.72;4970550;28;20031;-79
2022/04/27 00:43:52;;;;;;;12.68;9.90;;;;;;;5.05;80.03;102307.16;4970682;28;20087;-79
2022/04/27 00:46:18;;;;;;;12.00;10.07;;;;;;;5.01;79.64;102301.16;4983065;28;20026;-79
2022/04/27 00:48:43;;;;;;;16.02;10.13;;;;;;;4.96;79.66;102305.66;4968859;28;20023;-78
2022/04/27 00:51:14;;;;;;;12.60;10.13;;;;;;;4.92;79.63;102311.84;4969318;28;20458;-78
2022/04/27 00:53:43;;;;;;;13.95;10.30;;;;;;;4.85;80.50;102310.31;4970029;28;20038;-79
2022/04/27 00:56:10;;;;;;;13.07;10.05;;;;;;;4.82;79.85;102310.38;4969140;28;20042;-77
2022/04/27 00:58:35;;;;;;;13.77;10.40;;;;;;;4.79;80.76;102320.00;4970785;28;20035;-78
2022/04/27 01:01:00;;;;;;;14.65;11.60;;;;;;;4.76;80.74;102315.75;4967050;28;20026;-78
2022/04/27 01:03:26;;;;;;;12.52;11.23;;;;;;;4.78;80.87;102313.94;4960968;28;20175;-78
2022/04/27 01:05:51;;;;;;;15.88;12.02;;;;;;;4.75;80.87;102311.41;4970348;28;20033;-78
2022/04/27 01:08:19;;;;;;;17.27;13.38;;;;;;;4.71;81.37;102312.41;4969447;28;20030;-78
2022/04/27 01:10:47;;;;;;;16.50;13.25;;;;;;;4.71;82.21;102317.63;4969126;28;20049;-78
2022/04/27 01:13:12;;;;;;;17.20;13.98;;;;;;;4.71;81.66;102317.63;4969283;28;20029;-78
2022/04/27 01:15:38;;;;;;;19.73;13.85;;;;;;;4.69;81.87;102317.66;4968502;28;20469;-79
2022/04/27 01:18:04;;;;;;;16.13;13.18;;;;;;;4.69;81.58;102315.03;4969960;28;20373;-78
2022/04/27 01:20:35;;;;;;;20.20;15.07;;;;;;;4.67;82.58;102321.19;4968315;28;20106;-79
2022/04/27 01:23:01;;;;;;;20.73;15.20;;;;;;;4.68;82.09;102320.31;4968320;28;20030;-79
2022/04/27 01:25:27;;;;;;;18.35;14.30;;;;;;;4.62;82.08;102321.31;4968762;28;20033;-78
2022/04/27 01:27:53;;;;;;;20.75;14.93;;;;;;;4.60;81.75;102325.72;4970506;28;20019;-79
2022/04/27 01:30:19;;;;;;;17.70;14.45;;;;;;;4.58;81.91;102331.88;4969333;28;20376;-78
2022/04/27 01:32:45;;;;;;;19.98;15.55;;;;;;;4.54;82.06;102322.41;4970140;28;20034;-79
2022/04/27 01:35:10;;;;;;;20.48;15.52;;;;;;;4.50;82.53;102326.84;4966219;28;20023;-79
2022/04/27 01:40:19;;;;;;;19.10;15.05;;;;;;;4.44;82.44;102323.53;4969960;28;20041;-77
2022/04/27 01:42:44;;;;;;;20.50;14.90;;;;;;;4.48;82.33;102326.03;4968392;28;20034;-77
2022/04/27 01:45:10;;;;;;;21.05;15.75;;;;;;;4.40;82.45;102323.63;4970470;28;20038;-77
2022/04/27 01:47:35;;;;;;;19.35;14.63;;;;;;;4.37;82.74;102326.28;4971457;28;20173;-78
2022/04/27 01:50:00;;;;;;;19.88;14.90;;;;;;;4.39;82.08;102336.66;4973304;28;20514;-78
2022/04/27 01:55:10;;;;;;;19.10;14.68;;;;;;;4.32;82.05;102335.97;4974662;28;20085;-78
2022/04/27 01:57:35;;;;;;;20.55;15.50;;;;;;;4.29;81.92;102336.03;4972100;28;20038;-78
2022/04/27 02:00:01;;;;;;;22.15;14.80;;;;;;;4.27;82.36;102329.16;4972498;28;20014;-78
2022/04/27 02:02:26;;;;;;;18.92;15.68;;;;;;;4.20;82.42;102333.66;4971642;28;20105;-79
2022/04/27 02:04:51;;;;;;;19.25;15.25;;;;;;;4.19;82.37;102339.75;4970725;28;20042;-79
2022/04/27 02:07:16;;;;;;;19.35;15.30;;;;;;;4.15;82.51;102337.25;4972483;28;20041;-78
2022/04/27 02:09:42;;;;;;;19.77;14.98;;;;;;;4.13;82.50;102339.03;4967954;28;20031;-79
2022/04/27 02:12:08;;;;;;;20.23;15.95;;;;;;;4.11;83.15;102341.69;4968615;28;20022;-81
2022/04/27 02:14:33;;;;;;;19.45;15.48;;;;;;;4.06;83.04;102339.19;4972180;28;20050;-81
2022/04/27 02:16:59;;;;;;;21.35;16.13;;;;;;;4.07;83.46;102347.88;4973006;28;20302;-78
2022/04/27 02:19:24;;;;;;;21.40;15.63;;;;;;;4.05;83.28;102336.63;4972690;28;20030;-78
2022/04/27 02:21:50;;;;;;;21.25;16.08;;;;;;;4.03;83.64;102343.63;4971703;28;20026;-79
2022/04/27 02:24:16;;;;;;;21.23;15.38;;;;;;;4.02;83.33;102341.91;4973398;28;20105;-78
2022/04/27 02:26:42;;;;;;;19.08;15.50;;;;;;;3.99;84.18;102342.78;4970722;28;20023;-79
2022/04/27 02:29:08;;;;;;;18.20;15.30;;;;;;;3.95;83.76;102348.97;4967766;28;20110;-79
2022/04/27 02:31:33;;;;;;;18.58;15.52;;;;;;;3.96;83.90;102347.22;4973135;28;20543;-78
2022/04/27 02:33:59;;;;;;;18.50;15.50;;;;;;;3.97;84.16;102354.13;4972423;28;20034;-78
2022/04/27 02:36:24;;;;;;;17.90;15.77;;;;;;;3.98;83.61;102355.84;4972508;28;20049;-78
2022/04/27 02:38:49;;;;;;;19.75;16.23;;;;;;;3.95;83.92;102354.19;4972818;28;20093;-78
2022/04/27 02:41:15;;;;;;;23.08;17.20;;;;;;;3.95;84.76;102364.59;4972206;28;20514;-79
2022/04/27 02:43:40;;;;;;;21.02;17.38;;;;;;;3.95;84.65;102366.34;4966825;28;20447;-78
2022/04/27 02:46:06;;;;;;;19.55;17.45;;;;;;;3.93;84.50;102368.13;4972264;28;20030;-79
2022/04/27 02:48:31;;;;;;;20.83;17.33;;;;;;;3.91;84.63;102369.91;4973377;28;20019;-79
2022/04/27 02:53:40;;;;;;;22.17;17.95;;;;;;;3.89;84.41;102371.69;4972589;28;20407;-80
2022/04/27 02:56:06;;;;;;;21.85;18.33;;;;;;;3.86;84.17;102372.59;4972918;28;20030;-79
2022/04/27 02:58:31;;;;;;;24.40;18.70;;;;;;;3.87;85.10;102371.72;4972948;28;20623;-79
2022/04/27 03:00:56;;;;;;;23.10;18.58;;;;;;;3.84;85.04;102373.53;4968753;28;20031;-79
2022/04/27 03:03:22;;;;;;;22.55;18.48;;;;;;;3.80;84.70;102362.34;4972985;28;20065;-79
2022/04/27 03:05:47;;;;;;;23.38;19.05;;;;;;;3.82;84.34;102375.31;4971866;28;20035;-79
2022/04/27 03:08:14;;;;;;;23.23;18.88;;;;;;;3.82;84.75;102370.97;4972623;28;20023;-80
2022/04/27 03:10:39;;;;;;;24.83;19.63;;;;;;;3.76;84.96;102374.56;4971721;28;20035;-80
2022/04/27 03:13:05;;;;;;;29.67;20.20;;;;;;;3.76;84.86;102371.97;4972254;28;20034;-80
2022/04/27 03:15:32;;;;;;;24.88;19.67;;;;;;;3.73;84.91;102378.97;4970849;28;20134;-79
2022/04/27 03:20:41;;;;;;;23.55;19.45;;;;;;;3.66;84.82;102372.19;4972756;28;20037;-80
2022/04/27 03:23:07;;;;;;;22.20;19.05;;;;;;;3.64;84.52;102380.03;4971461;28;20109;-79
2022/04/27 03:25:33;;;;;;;21.88;19.55;;;;;;;3.62;84.44;102384.41;4972770;28;20532;-77
2022/04/27 03:27:58;;;;;;;22.33;18.92;;;;;;;3.58;85.12;102374.91;4972780;28;20022;-79
2022/04/27 03:30:23;;;;;;;23.52;18.83;;;;;;;3.59;84.95;102379.25;4970154;28;20037;-78
2022/04/27 03:32:49;;;;;;;22.25;19.65;;;;;;;3.54;84.65;102375.88;4972464;28;20161;-79
2022/04/27 03:35:17;;;;;;;23.17;19.77;;;;;;;3.56;85.01;102383.66;4970270;28;20031;-78
2022/04/27 03:37:42;;;;;;;24.73;19.85;;;;;;;3.52;85.25;102375.06;4965362;28;20027;-78
2022/04/27 03:40:09;;;;;;;24.23;19.80;;;;;;;3.51;84.57;102380.28;4972043;28;20030;-79
2022/04/27 03:42:35;;;;;;;25.15;20.23;;;;;;;3.45;84.33;102382.13;4971407;28;20797;-79
2022/04/27 03:45:00;;;;;;;23.05;20.20;;;;;;;3.43;84.78;102378.69;4972149;28;20066;-79
2022/04/27 03:47:25;;;;;;;27.05;21.67;;;;;;;3.41;85.32;102383.06;4971485;28;20506;-79
2022/04/27 03:49:51;;;;;;;24.75;20.65;;;;;;;3.39;84.42;102381.41;4969808;28;20029;-79
2022/04/27 03:52:18;;;;;;;26.73;21.70;;;;;;;3.35;84.57;102388.41;4970692;28;20376;-78
2022/04/27 03:54:43;;;;;;;26.20;21.15;;;;;;;3.33;84.84;102389.31;4965956;28;20031;-78
2022/04/27 03:57:09;;;;;;;25.08;21.40;;;;;;;3.31;85.13;102393.69;4970765;28;20023;-79
2022/04/27 03:59:34;;;;;;;25.98;22.02;;;;;;;3.30;85.23;102402.38;4971707;28;20048;-79
2022/04/27 04:02:00;;;;;;;27.15;21.52;;;;;;;3.26;85.49;102400.72;4972622;28;20386;-78
2022/04/27 04:04:25;;;;;;;26.42;22.05;;;;;;;3.24;85.29;102399.91;4970538;28;20042;-78
2022/04/27 04:06:51;;;;;;;26.98;21.45;;;;;;;3.22;85.16;102399.94;4984750;28;20037;-78
2022/04/27 04:09:16;;;;;;;26.27;22.00;;;;;;;3.18;85.02;102402.59;4965670;28;20092;-79
2022/04/27 04:11:41;;;;;;;24.98;22.10;;;;;;;3.14;85.62;102412.19;4966684;28;20031;-78
2022/04/27 04:14:07;;;;;;;25.23;22.33;;;;;;;3.09;85.44;102407.06;4969868;28;20117;-77
2022/04/27 04:16:32;;;;;;;26.52;21.73;;;;;;;3.11;85.31;102413.09;4971304;28;20042;-78
2022/04/27 04:18:57;;;;;;;27.15;22.00;;;;;;;3.06;85.14;102403.69;4968830;28;20026;-78
2022/04/27 04:21:23;;;;;;;28.00;22.02;;;;;;;3.05;85.42;102408.03;4970931;28;20038;-78
2022/04/27 04:23:48;;;;;;;27.40;22.27;;;;;;;3.02;85.42;102408.06;4971112;28;20073;-78
2022/04/27 04:28:57;;;;;;;25.17;22.20;;;;;;;2.97;85.68;102417.69;4971073;28;20502;-78
2022/04/27 04:31:22;;;;;;;28.50;23.67;;;;;;;2.97;85.73;102422.91;4970870;28;20102;-78
2022/04/27 04:33:48;;;;;;;27.00;22.50;;;;;;;2.95;85.71;102416.00;4970360;28;20173;-78
2022/04/27 04:36:13;;;;;;;28.23;23.10;;;;;;;2.93;85.69;102422.97;4970895;28;20022;-78
2022/04/27 04:38:39;;;;;;;28.90;23.48;;;;;;;2.91;86.77;102430.81;4969566;28;20030;-78
2022/04/27 04:41:04;;;;;;;29.35;23.55;;;;;;;2.92;86.90;102432.53;4969602;28;20058;-78
2022/04/27 04:43:32;;;;;;;27.20;23.90;;;;;;;2.91;86.99;102436.00;4969838;28;20113;-80
2022/04/27 04:45:57;;;;;;;30.63;24.60;;;;;;;2.89;86.76;102436.91;4960539;28;20022;-78
2022/04/27 04:48:22;;;;;;;27.75;24.40;;;;;;;2.90;87.31;102439.50;4969254;28;20050;-78
2022/04/27 04:50:48;;;;;;;30.02;24.90;;;;;;;2.90;87.20;102443.84;4970962;28;20022;-78
2022/04/27 04:53:13;;;;;;;29.42;24.80;;;;;;;2.90;87.41;102444.69;4970619;28;20037;-78
2022/04/27 04:55:38;;;;;;;30.48;24.05;;;;;;;2.90;87.21;102442.09;4971084;28;20042;-79
2022/04/27 04:58:04;;;;;;;28.70;24.90;;;;;;;2.90;87.43;102449.03;4969078;28;20033;-79
2022/04/27 05:00:29;;;;;;;29.52;23.98;;;;;;;2.93;87.88;102447.25;4970080;28;20031;-79
2022/04/27 05:02:55;;;;;;;28.98;24.25;;;;;;;2.93;88.21;102449.84;4961119;28;20405;-78
2022/04/27 05:05:20;;;;;;;30.02;24.55;;;;;;;2.94;88.56;102455.91;4970954;28;20406;-83
2022/04/27 05:07:46;;;;;;;30.80;25.00;;;;;;;2.95;88.48;102453.28;4968706;28;20086;-80
2022/04/27 05:10:11;;;;;;;27.38;24.23;;;;;;;2.98;88.55;102457.56;4969623;28;20019;-78
2022/04/27 05:12:37;;;;;;;27.30;23.48;;;;;;;2.99;88.15;102459.28;4970748;28;20035;-78
2022/04/27 05:15:03;;;;;;;28.30;24.50;;;;;;;3.02;88.16;102454.88;4969182;28;20507;-78
2022/04/27 05:17:28;;;;;;;27.88;24.63;;;;;;;3.03;89.07;102461.78;4969513;28;20038;-79
2022/04/27 05:19:54;;;;;;;30.55;25.23;;;;;;;3.04;88.95;102460.91;4963276;28;20110;-78
2022/04/27 05:22:20;;;;;;;30.13;24.52;;;;;;;3.10;89.00;102462.53;4971753;28;20035;-79
2022/04/27 05:24:45;;;;;;;29.52;24.15;;;;;;;3.13;89.23;102465.94;4976514;28;20565;-79
2022/04/27 05:27:10;;;;;;;32.53;25.25;;;;;;;3.18;89.17;102475.41;4975578;28;20130;-79
2022/04/27 05:32:20;;;;;;;30.85;25.60;;;;;;;3.24;89.41;102475.34;4969518;28;20082;-79
2022/04/27 05:34:45;;;;;;;30.00;26.10;;;;;;;3.27;89.57;102477.88;4975297;28;20035;-82
2022/04/27 05:37:12;;;;;;;34.67;27.27;;;;;;;3.33;90.57;102483.81;4970551;28;20435;-81
2022/04/27 05:39:37;;;;;;;29.60;26.27;;;;;;;3.40;91.34;102492.38;4977128;28;20031;-79
2022/04/27 05:42:06;;;;;;;33.40;27.90;;;;;;;3.47;91.40;102486.16;4975807;28;20057;-78
2022/04/27 05:44:31;;;;;;;31.27;26.80;;;;;;;3.50;90.34;102493.06;4977248;28;20027;-79
2022/04/27 05:46:57;;;;;;;33.83;27.52;;;;;;;3.56;91.42;102496.41;4976801;28;20050;-79
2022/04/27 05:49:22;;;;;;;32.33;25.45;;;;;;;3.62;90.80;102492.84;4974802;28;20035;-82
2022/04/27 05:51:48;;;;;;;32.70;25.95;;;;;;;3.69;90.95;102492.72;4976138;28;20026;-82
2022/04/27 05:54:14;;;;;;;34.30;25.98;;;;;;;3.77;90.68;102500.38;4975081;28;20557;-80
2022/04/27 05:56:41;;;;;;;32.70;24.77;;;;;;;3.87;91.42;102503.66;4972368;28;20590;-79
2022/04/27 05:59:07;;;;;;;34.58;25.65;;;;;;;3.94;91.79;102506.09;4976201;28;20030;-79
2022/04/27 06:01:32;;;;;;;34.22;25.90;;;;;;;3.99;92.59;102504.25;4976466;28;20030;-79
2022/04/27 06:03:58;;;;;;;31.83;23.20;;;;;;;4.09;91.26;102499.75;4973564;28;20050;-79
2022/04/27 06:06:23;;;;;;;35.45;23.58;;;;;;;4.17;91.32;102507.38;4974704;28;20394;-79
2022/04/27 06:08:50;;;;;;;30.45;22.67;;;;;;;4.20;90.75;102507.31;4959166;28;20046;-79
2022/04/27 06:11:16;;;;;;;30.13;23.02;;;;;;;4.30;91.60;102507.09;4975325;28;20130;-80
2022/04/27 06:13:42;;;;;;;29.60;22.40;;;;;;;4.40;90.76;102516.44;4973737;28;20123;-79
2022/04/27 06:16:07;;;;;;;29.13;22.77;;;;;;;4.49;91.46;102511.94;4975943;28;20526;-79
2022/04/27 06:18:32;;;;;;;26.45;21.27;;;;;;;4.56;91.12;102516.09;4974488;28;20042;-80
2022/04/27 06:20:58;;;;;;;26.25;20.70;;;;;;;4.65;90.79;102510.69;4975854;28;20097;-78
2022/04/27 06:23:23;;;;;;;27.38;21.70;;;;;;;4.76;91.33;102518.25;4975338;28;20030;-78
2022/04/27 06:25:49;;;;;;;25.40;20.63;;;;;;;4.83;90.19;102520.72;4975137;28;20033;-79
2022/04/27 06:28:17;;;;;;;26.35;20.63;;;;;;;4.92;89.80;102519.63;4976279;28;20019;-78
2022/04/27 06:30:43;;;;;;;24.63;20.10;;;;;;;5.01;90.80;102520.25;4968977;28;20026;-79
2022/04/27 06:33:08;;;;;;;27.33;19.67;;;;;;;5.09;89.58;102516.59;4974242;28;20471;-78
2022/04/27 06:35:33;;;;;;;23.17;18.92;;;;;;;5.17;89.40;102525.09;4971816;28;20142;-79
2022/04/27 06:37:59;;;;;;;24.20;19.20;;;;;;;5.30;90.04;102532.59;4972873;28;20061;-79
2022/04/27 06:40:25;;;;;;;25.95;19.73;;;;;;;5.37;89.44;102517.66;4971655;28;20065;-78
2022/04/27 06:42:51;;;;;;;24.30;18.15;;;;;;;5.50;89.58;102529.47;4971863;28;20110;-79
2022/04/27 06:45:17;;;;;;;25.55;18.48;;;;;;;5.56;88.32;102518.88;4970796;28;20038;-78
2022/04/27 06:47:42;;;;;;;22.70;17.52;;;;;;;5.70;88.49;102528.97;4971964;28;20035;-77
2022/04/27 06:50:11;;;;;;;22.75;17.67;;;;;;;5.83;88.25;102535.56;4972212;28;20026;-79
2022/04/27 06:52:41;;;;;;;22.67;16.75;;;;;;;5.94;87.17;102540.53;4969021;28;20035;-79
2022/04/27 06:55:08;;;;;;;24.25;18.15;;;;;;;6.09;87.74;102536.66;4971585;28;20084;-78
2022/04/27 06:57:34;;;;;;;22.15;15.95;;;;;;;6.16;86.55;102536.44;4972163;28;20034;-78
2022/04/27 06:59:59;;;;;;;22.92;16.58;;;;;;;6.29;86.56;102531.69;4970107;28;20026;-78
2022/04/27 07:02:25;;;;;;;23.92;14.50;;;;;;;6.40;85.11;102539.22;4971518;28;20023;-79
2022/04/27 07:04:55;;;;;;;22.38;14.65;;;;;;;6.51;84.17;102537.16;4970551;28;20146;-79
2022/04/27 07:07:20;;;;;;;18.02;14.50;;;;;;;6.61;83.51;102541.22;4971358;28;20042;-78
2022/04/27 07:09:46;;;;;;;20.42;14.18;;;;;;;6.73;83.15;102543.44;4971272;28;20131;-78
2022/04/27 07:12:13;;;;;;;21.42;13.68;;;;;;;6.83;82.53;102541.44;4971012;28;20038;-78
2022/04/27 07:14:38;;;;;;;20.92;14.55;;;;;;;6.97;81.85;102546.22;4964767;28;20048;-78
2022/04/27 07:17:03;;;;;;;18.88;13.90;;;;;;;7.10;81.63;102543.16;4967942;28;20023;-79
2022/04/27 07:19:29;;;;;;;18.15;13.18;;;;;;;7.21;80.97;102540.22;4966748;28;20046;-78
2022/04/27 07:21:54;;;;;;;17.13;12.80;;;;;;;7.37;80.16;102551.03;4956170;28;20066;-78
2022/04/27 07:24:20;;;;;;;15.93;12.23;;;;;;;7.47;78.92;102553.28;4964714;28;20054;-78
2022/04/27 07:26:46;;;;;;;16.67;12.45;;;;;;;7.62;78.45;102557.16;4971861;28;20427;-78
2022/04/27 07:29:11;;;;;;;17.48;11.82;;;;;;;7.77;77.62;102553.16;4970539;28;20162;-78
2022/04/27 07:31:37;;;;;;;16.40;10.98;;;;;;;7.88;75.34;102553.63;4970961;28;20399;-78
2022/04/27 07:34:02;;;;;;;17.13;10.32;;;;;;;8.02;75.29;102567.09;4969429;28;20031;-78
2022/04/27 07:36:27;;;;;;;17.02;10.55;;;;;;;8.17;75.12;102563.91;4970209;28;20027;-79
2022/04/27 07:38:53;;;;;;;17.85;11.63;;;;;;;8.28;74.48;102567.91;4969863;28;20479;-79
2022/04/27 07:41:18;;;;;;;17.65;11.73;;;;;;;8.42;75.30;102569.16;4964079;28;20039;-78
2022/04/27 07:43:43;;;;;;;13.50;9.98;;;;;;;8.56;73.52;102568.63;4958407;28;20020;-78
2022/04/27 07:46:11;;;;;;;16.30;9.93;;;;;;;8.68;72.95;102564.69;4964687;28;20410;-76
2022/04/27 07:48:36;;;;;;;17.02;10.02;;;;;;;8.82;71.09;102566.78;4971032;28;20178;-77
2022/04/27 07:51:03;;;;;;;13.88;9.43;;;;;;;9.00;71.42;102571.31;4968185;28;20542;-77
2022/04/27 07:53:29;;;;;;;10.65;7.47;;;;;;;9.09;67.37;102573.56;4972227;28;20483;-77
2022/04/27 07:55:55;;;;;;;11.55;6.88;;;;;;;9.23;66.74;102571.25;4970143;28;20027;-78
2022/04/27 07:58:21;;;;;;;12.23;6.82;;;;;;;9.36;66.06;102575.06;4970524;28;20027;-78
2022/04/27 08:00:46;;;;;;;11.68;6.93;;;;;;;9.52;66.79;102569.16;4971344;28;20019;-77
2022/04/27 08:03:11;;;;;;;10.57;7.20;;;;;;;9.64;65.52;102566.06;4965294;28;20015;-77
2022/04/27 08:05:37;;;;;;;10.90;5.22;;;;;;;9.78;63.46;102562.81;4969850;28;20474;-77
2022/04/27 08:08:02;;;;;;;9.70;5.93;;;;;;;9.94;63.71;102569.13;4970942;28;20074;-78
2022/04/27 08:10:28;;;;;;;7.57;3.70;;;;;;;10.04;59.67;102573.94;4970431;28;20033;-79
2022/04/27 08:12:53;;;;;;;7.18;3.63;;;;;;;10.17;59.50;102573.38;4984571;28;20025;-79
2022/04/27 08:15:21;;;;;;;5.78;3.42;;;;;;;10.27;59.05;102572.06;4968162;28;20061;-79
2022/04/27 08:17:59;;;;;;;10.48;5.53;;;;;;;10.39;58.92;102570.66;4957334;28;20035;-77
2022/04/27 08:23:20;;;;;;;8.00;3.60;;;;;;;10.63;57.77;102575.66;4959623;28;20045;-78
2022/04/27 08:25:47;;;;;;;7.82;5.10;;;;;;;10.80;58.67;102576.63;4953756;28;20042;-82
2022/04/27 08:28:13;;;;;;;8.90;5.45;;;;;;;10.93;59.00;102578.63;4960262;28;20019;-82
2022/04/27 08:30:41;;;;;;;9.15;6.05;;;;;;;11.07;58.59;102585.00;4953644;28;20055;-79
2022/04/27 08:33:08;;;;;;;9.93;5.95;;;;;;;11.16;58.18;102581.91;4959410;28;20399;-80
2022/04/27 08:35:34;;;;;;;11.88;6.80;;;;;;;11.20;56.66;102581.69;4964847;28;20026;-80
2022/04/27 08:38:00;;;;;;;9.02;5.57;;;;;;;11.40;57.95;102582.50;4968074;28;20302;-80
2022/04/27 08:40:25;;;;;;;11.05;5.90;;;;;;;11.50;56.93;102583.75;4965081;28;20085;-79
2022/04/27 08:42:52;;;;;;;9.57;6.10;;;;;;;11.61;56.87;102586.72;4966926;28;20054;-79
2022/04/27 08:45:17;;;;;;;7.85;5.60;;;;;;;11.72;55.94;102589.66;4985679;28;20038;-79
2022/04/27 08:47:47;;;;;;;8.85;5.45;;;;;;;11.86;56.47;102581.94;4989569;28;20022;-79
2022/04/27 08:50:18;;;;;;;11.55;5.75;;;;;;;11.86;53.82;102591.63;4985665;28;20550;-79
2022/04/27 08:52:43;;;;;;;7.35;6.03;;;;;;;12.04;55.04;102589.84;4984864;28;20048;-79
2022/04/27 08:55:10;;;;;;;10.23;6.43;;;;;;;12.08;54.38;102596.66;4989502;28;20030;-80
2022/04/27 08:57:36;;;;;;;9.75;5.95;;;;;;;12.18;53.95;102596.09;4983113;28;20066;-79
2022/04/27 09:00:04;;;;;;;8.75;6.20;;;;;;;12.25;52.86;102596.59;4961852;28;20030;-79
2022/04/27 09:02:30;;;;;;;11.63;5.55;;;;;;;12.32;52.80;102595.34;4971178;28;20046;-80
2022/04/27 09:05:19;;;;;;;9.07;6.05;;;;;;;12.43;53.95;102598.28;4988374;28;20498;-77
2022/04/27 09:07:50;;;;;;;12.40;6.53;;;;;;;12.49;51.39;102592.66;4978974;28;20030;-77
2022/04/27 09:10:17;;;;;;;9.32;6.32;;;;;;;12.62;52.59;102589.34;4988114;28;20046;-83
2022/04/27 09:12:53;;;;;;;8.32;5.28;;;;;;;12.81;53.22;102588.28;4987394;28;20022;-79
2022/04/27 09:15:21;;;;;;;9.50;5.93;;;;;;;12.94;51.59;102591.06;4966256;28;20097;-78
2022/04/27 09:20:46;;;;;;;9.80;5.25;;;;;;;13.00;48.26;102588.09;4985480;28;20048;-78
2022/04/27 09:23:24;;;;;;;8.52;5.55;;;;;;;13.06;50.84;102593.03;4988739;28;20387;-78
2022/04/27 09:25:56;;;;;;;7.93;5.45;;;;;;;13.17;50.01;102593.28;4989519;28;20042;-79
2022/04/27 09:28:23;;;;;;;8.40;5.60;;;;;;;13.23;49.84;102593.91;4987600;28;20037;-78
2022/04/27 09:30:49;;;;;;;8.23;5.57;;;;;;;13.26;48.28;102589.28;4974416;28;20019;-78
2022/04/27 09:33:35;;;;;;;8.32;5.78;;;;;;;13.48;51.16;102588.88;4999321;28;20049;-79
2022/04/27 09:36:17;;;;;;;7.45;5.60;;;;;;;13.50;47.30;102584.34;4988377;28;20397;-78
2022/04/27 09:38:43;;;;;;;7.47;5.40;;;;;;;13.53;47.86;102581.53;4989011;28;20034;-79
2022/04/27 09:41:09;;;;;;;7.47;5.47;;;;;;;13.55;47.25;102579.66;4989622;28;20398;-78
2022/04/27 09:43:44;;;;;;;7.72;5.57;;;;;;;13.76;48.46;102588.97;4989044;28;20031;-77
2022/04/27 09:46:25;;;;;;;8.05;5.90;;;;;;;13.78;48.62;102589.72;4988390;28;20141;-78
2022/04/27 09:49:08;;;;;;;8.60;5.10;;;;;;;13.96;50.39;102584.25;4987253;28;20027;-79
2022/04/27 09:51:46;;;;;;;6.65;5.18;;;;;;;14.06;47.28;102596.03;4988993;28;20498;-79
2022/04/27 09:54:16;;;;;;;8.25;5.80;;;;;;;14.24;48.00;102589.59;4988979;28;20446;-79
2022/04/27 09:56:43;;;;;;;6.65;5.68;;;;;;;14.44;48.56;102583.09;4989332;28;20080;-79
2022/04/27 09:59:10;;;;;;;10.90;6.10;;;;;;;14.47;46.73;102595.31;4988659;28;20390;-79
2022/04/27 10:01:36;;;;;;;6.32;5.55;;;;;;;14.66;46.20;102591.41;4991052;28;20461;-79
2022/04/27 10:04:04;;;;;;;8.82;6.25;;;;;;;14.56;44.65;102578.84;4990362;28;20414;-78
2022/04/27 10:06:34;;;;;;;11.27;6.82;;;;;;;14.66;45.09;102580.78;4996591;28;20034;-78
2022/04/27 10:09:02;;;;;;;9.35;5.55;;;;;;;14.79;45.56;102583.50;4989295;28;20408;-79
2022/04/27 10:11:28;;;;;;;8.43;5.85;;;;;;;14.85;46.33;102584.94;5003627;28;20026;-78
2022/04/27 10:13:55;;;;;;;11.82;6.53;;;;;;;14.96;45.73;102583.28;4995365;28;20390;-79
2022/04/27 10:16:22;;;;;;;8.18;6.30;;;;;;;14.99;44.94;102588.38;4993945;28;20018;-79
2022/04/27 10:18:48;;;;;;;10.38;6.80;;;;;;;15.05;43.74;102588.00;4996205;28;20030;-78
2022/04/27 10:21:14;;;;;;;9.70;6.35;;;;;;;15.05;43.06;102579.19;4997755;28;20443;-82
2022/04/27 10:23:43;;;;;;;8.98;6.55;;;;;;;15.08;44.40;102578.13;4997288;28;20041;-79
2022/04/27 10:26:14;;;;;;;11.48;6.57;;;;;;;15.04;44.06;102577.47;4973522;28;20077;-79
2022/04/27 10:28:51;;;;;;;8.38;6.63;;;;;;;15.07;44.30;102573.78;4973583;28;20018;-78
2022/04/27 10:31:47;;;;;;;10.30;7.10;;;;;;;15.17;45.82;102575.72;4988121;28;20045;-78
2022/04/27 10:34:22;;;;;;;10.55;6.93;;;;;;;15.22;43.68;102568.34;4993103;28;20542;-78
2022/04/27 10:36:49;;;;;;;10.35;7.72;;;;;;;15.31;43.61;102569.53;4992405;28;20402;-79
2022/04/27 10:39:20;;;;;;;10.10;6.97;;;;;;;15.34;44.38;102564.88;4992648;28;20415;-78
2022/04/27 10:41:55;;;;;;;11.30;6.85;;;;;;;15.50;45.37;102563.84;4986148;28;20478;-79
2022/04/27 10:44:21;;;;;;;9.15;6.43;;;;;;;15.78;45.98;102560.19;4992167;28;20022;-78
2022/04/27 10:46:47;;;;;;;9.05;6.00;;;;;;;15.77;43.35;102561.16;4992777;28;20027;-79
2022/04/27 10:49:26;;;;;;;8.80;6.50;;;;;;;15.86;44.85;102555.19;4992985;28;20030;-79
2022/04/27 10:52:05;;;;;;;8.75;6.75;;;;;;;16.00;43.84;102568.38;4990667;28;20026;-78
2022/04/27 10:54:39;;;;;;;8.05;6.53;;;;;;;16.02;43.11;102555.84;4992924;28;20033;-78
2022/04/27 10:57:13;;;;;;;8.93;6.35;;;;;;;16.04;42.23;102556.59;4992325;28;20088;-78
2022/04/27 11:00:01;;;;;;;10.50;6.65;;;;;;;16.13;43.81;102550.63;4986197;28;20034;-78
2022/04/27 11:02:39;;;;;;;8.07;6.18;;;;;;;16.48;44.54;102565.91;4991771;28;20601;-78
2022/04/27 11:05:19;;;;;;;8.48;6.43;;;;;;;16.67;43.84;102566.28;4990968;28;20056;-80
2022/04/27 11:07:52;;;;;;;10.30;7.05;;;;;;;16.86;43.07;102556.03;4990641;28;20034;-79
2022/04/27 11:10:21;;;;;;;8.25;6.32;;;;;;;16.95;40.81;102562.47;4991269;28;20022;-83
2022/04/27 11:12:51;;;;;;;11.23;6.65;;;;;;;16.83;40.17;102568.69;4992157;28;20673;-79
2022/04/27 11:15:21;;;;;;;9.48;6.60;;;;;;;16.84;40.97;102557.09;4985119;28;20058;-79
2022/04/27 11:18:01;;;;;;;10.57;7.38;;;;;;;17.01;42.44;102564.69;4972895;28;20023;-83
2022/04/27 11:20:38;;;;;;;9.20;6.45;;;;;;;17.11;41.95;102560.38;4970418;28;20118;-79
2022/04/27 11:23:21;;;;;;;6.72;6.00;;;;;;;17.07;41.95;102555.41;4986729;28;20038;-79
2022/04/27 11:25:51;;;;;;;11.25;6.78;;;;;;;17.11;41.52;102551.53;4991936;28;20029;-80
2022/04/27 11:28:17;;;;;;;7.10;5.57;;;;;;;17.37;40.60;102553.13;4991838;28;20022;-80
2022/04/27 11:30:43;;;;;;;8.60;6.28;;;;;;;17.41;39.57;102546.59;4991424;28;20494;-79
2022/04/27 11:33:10;;;;;;;8.52;6.00;;;;;;;17.45;40.20;102553.38;4989021;28;20066;-78
2022/04/27 11:35:42;;;;;;;8.27;6.30;;;;;;;17.45;39.16;102548.06;4987399;28;20026;-78
2022/04/27 11:38:08;;;;;;;8.00;5.70;;;;;;;17.74;39.55;102542.34;4987578;28;20027;-79
2022/04/27 11:40:37;;;;;;;11.48;6.43;;;;;;;17.73;38.41;102545.97;4972557;28;20729;-78